Honey Brook, PA

11:11 PM EST on February 05, 2016 (GMT -0500)
Honey Brook, PA Rock Road | | Change Station
CLOSE
Current Station
Personal Weather Station
Location: Honey Brook, PA
Elevation: 740 ft
Nearby Weather Stations
Active Advisory: Special Statement Active Notice: Public Information Statement

Elev 740 ft 40.06 °N, 75.93 °W | Updated 1 second ago

Clear
Clear
29.5 °F
Feels Like 30 °F
N
0.0
Wind Variable Wind from West
Gusts 0.0 mph

Today
High -- | Low -- °F
--% Chance of Precip.
Yesterday
High -- | Low -- °F
Precip. -- in
Pressure 30.34 in
Visibility 10.0 miles
Clouds Clear
Windchill 30 °F
Dew Point 22 °F
Humidity 75%
Rainfall 0.13 in
Snow Depth Not available.
7:08 AM 5:27 PM
Waning Crescent, 8% visible
METAR KMQS 060355Z AUTO 30007KT 10SM CLR M01/M06 A3034 RMK AO2
Pressure 30.34 in
Visibility 10.0 miles
Clouds Clear
Windchill 30 °F
Dew Point 22 °F
Humidity 75%
Rainfall 0.13 in
Snow Depth Not available.
7:08 AM 5:27 PM
Waning Crescent, 8% visible
METAR KMQS 060355Z AUTO 30007KT 10SM CLR M01/M06 A3034 RMK AO2

10-Day Weather Forecast

Almanac

Astronomy

Feb. 05, 2016 Rise Set
Actual Time
Civil Twilight
Nautical Twilight
Astronomical Twilight
Moon
Length of Visible Light
Length of Day
Tomorrow will be .
, % of the Moon is Illuminated

Today's Extremes

State Highs State Lows

Community

WunderPhotos

Upload Photos

1,890,917 photos uploaded!

WunderBlog® & News

Nearby

Air Quality

  Air Quality AQ Index Pollutant
Not available.

Snow Depth

Station Depth Elevation

Earthquake Activity

City Distance Mag. Time & Date
Minimum magnitude displayed is 2.5.

Coastal Water Temperatures

Place Temperature

Stations

Nearby Weather Stations

Station Location Temp. Windchill Dew Point Humidity Wind Precip. Elev Updated Type
                   

Watches & Warnings

Special Statement
Issued: 7:26 PM EST Feb. 5, 2016 – National Weather Service

... Patchy ice overnight and early on Saturday morning...

Standing water, mostly from snowmelt, will freeze overnight
resulting in patchy ice. The ice patches will be mainly on
secondary roads, walkways and parking lots.

If you will be going out overnight or early on Saturday morning,
use extra caution.


Iovino

726 PM EST Fri Feb 5 2016

... Patchy ice overnight and early on Saturday morning...

Standing water, mostly from snowmelt, will freeze overnight
resulting in patchy ice. The ice patches will be mainly on
secondary roads, walkways and parking lots.

If you will be going out overnight or early on Saturday morning,
use extra caution.


Iovino